sensor_id;sensor_type;location;lat;lon;timestamp;P1;durP1;ratioP1;P2;durP2;ratioP2
67352;SDS011;54238;52.278;21.056;2022-08-01T00:02:58;8.10;;;2.90;;
67352;SDS011;54238;52.278;21.056;2022-08-01T00:05:25;5.60;;;2.70;;
67352;SDS011;54238;52.278;21.056;2022-08-01T00:07:54;5.80;;;2.80;;
67352;SDS011;54238;52.278;21.056;2022-08-01T00:10:26;4.60;;;2.60;;
67352;SDS011;54238;52.278;21.056;2022-08-01T00:12:53;10.60;;;3.20;;
67352;SDS011;54238;52.278;21.056;2022-08-01T00:15:24;7.60;;;2.60;;
67352;SDS011;54238;52.278;21.056;2022-08-01T00:17:54;3.60;;;2.40;;
67352;SDS011;54238;52.278;21.056;2022-08-01T00:20:31;5.90;;;3.10;;
67352;SDS011;54238;52.278;21.056;2022-08-01T00:23:02;6.60;;;3.00;;
67352;SDS011;54238;52.278;21.056;2022-08-01T00:28:33;8.10;;;3.70;;
67352;SDS011;54238;52.278;21.056;2022-08-01T00:31:00;9.80;;;4.90;;
67352;SDS011;54238;52.278;21.056;2022-08-01T00:33:30;18.30;;;4.90;;
67352;SDS011;54238;52.278;21.056;2022-08-01T00:36:01;13.00;;;5.30;;
67352;SDS011;54238;52.278;21.056;2022-08-01T00:38:28;12.50;;;5.00;;
67352;SDS011;54238;52.278;21.056;2022-08-01T00:43:55;13.00;;;5.90;;
67352;SDS011;54238;52.278;21.056;2022-08-01T00:46:21;13.20;;;5.80;;
67352;SDS011;54238;52.278;21.056;2022-08-01T00:48:51;14.70;;;5.00;;
67352;SDS011;54238;52.278;21.056;2022-08-01T00:51:27;12.00;;;5.70;;
67352;SDS011;54238;52.278;21.056;2022-08-01T00:53:57;11.70;;;5.20;;
67352;SDS011;54238;52.278;21.056;2022-08-01T00:59:28;8.30;;;4.20;;
67352;SDS011;54238;52.278;21.056;2022-08-01T01:02:01;11.10;;;4.40;;
67352;SDS011;54238;52.278;21.056;2022-08-01T01:04:30;10.80;;;4.40;;
67352;SDS011;54238;52.278;21.056;2022-08-01T01:07:09;6.80;;;3.50;;
67352;SDS011;54238;52.278;21.056;2022-08-01T01:10:00;7.10;;;3.50;;
67352;SDS011;54238;52.278;21.056;2022-08-01T01:12:47;5.10;;;3.00;;
67352;SDS011;54238;52.278;21.056;2022-08-01T01:18:05;7.10;;;2.70;;
67352;SDS011;54238;52.278;21.056;2022-08-01T01:20:43;7.00;;;2.90;;
67352;SDS011;54238;52.278;21.056;2022-08-01T01:23:24;8.20;;;3.00;;
67352;SDS011;54238;52.278;21.056;2022-08-01T01:29:00;7.40;;;3.40;;
67352;SDS011;54238;52.278;21.056;2022-08-01T01:31:43;5.10;;;3.10;;
67352;SDS011;54238;52.278;21.056;2022-08-01T01:34:17;9.90;;;3.00;;
67352;SDS011;54238;52.278;21.056;2022-08-01T01:36:48;8.60;;;3.30;;
67352;SDS011;54238;52.278;21.056;2022-08-01T01:39:20;8.50;;;3.60;;
67352;SDS011;54238;52.278;21.056;2022-08-01T01:41:50;7.80;;;3.60;;
67352;SDS011;54238;52.278;21.056;2022-08-01T01:44:19;8.20;;;4.10;;
67352;SDS011;54238;52.278;21.056;2022-08-01T01:46:48;9.10;;;4.20;;
67352;SDS011;54238;52.278;21.056;2022-08-01T01:49:21;14.50;;;4.30;;
67352;SDS011;54238;52.278;21.056;2022-08-01T01:51:59;11.80;;;4.40;;
67352;SDS011;54238;52.278;21.056;2022-08-01T01:54:35;9.90;;;4.80;;
67352;SDS011;54238;52.278;21.056;2022-08-01T01:57:10;15.10;;;5.30;;
67352;SDS011;54238;52.278;21.056;2022-08-01T01:59:43;14.70;;;5.60;;
67352;SDS011;54238;52.278;21.056;2022-08-01T02:02:13;15.10;;;5.10;;
67352;SDS011;54238;52.278;21.056;2022-08-01T02:04:46;8.70;;;4.00;;
67352;SDS011;54238;52.278;21.056;2022-08-01T02:07:21;13.40;;;4.70;;
67352;SDS011;54238;52.278;21.056;2022-08-01T02:09:51;11.40;;;4.80;;
67352;SDS011;54238;52.278;21.056;2022-08-01T02:12:21;12.30;;;4.80;;
67352;SDS011;54238;52.278;21.056;2022-08-01T02:14:52;12.50;;;4.70;;
67352;SDS011;54238;52.278;21.056;2022-08-01T02:19:54;10.80;;;4.60;;
67352;SDS011;54238;52.278;21.056;2022-08-01T02:22:29;13.10;;;4.30;;
67352;SDS011;54238;52.278;21.056;2022-08-01T02:25:03;12.10;;;4.40;;
67352;SDS011;54238;52.278;21.056;2022-08-01T02:28:05;20.10;;;5.20;;
67352;SDS011;54238;52.278;21.056;2022-08-01T02:30:39;15.60;;;5.10;;
67352;SDS011;54238;52.278;21.056;2022-08-01T02:33:20;13.20;;;5.00;;
67352;SDS011;54238;52.278;21.056;2022-08-01T02:35:56;12.50;;;4.70;;
67352;SDS011;54238;52.278;21.056;2022-08-01T02:38:31;12.70;;;5.00;;
67352;SDS011;54238;52.278;21.056;2022-08-01T02:41:07;11.10;;;5.00;;
67352;SDS011;54238;52.278;21.056;2022-08-01T02:43:43;17.80;;;4.70;;
67352;SDS011;54238;52.278;21.056;2022-08-01T02:46:21;10.90;;;4.80;;
67352;SDS011;54238;52.278;21.056;2022-08-01T02:48:56;9.80;;;4.60;;
67352;SDS011;54238;52.278;21.056;2022-08-01T02:53:59;14.30;;;4.80;;
67352;SDS011;54238;52.278;21.056;2022-08-01T02:56:31;16.00;;;5.60;;
67352;SDS011;54238;52.278;21.056;2022-08-01T02:59:14;19.30;;;6.80;;
67352;SDS011;54238;52.278;21.056;2022-08-01T03:01:47;18.80;;;6.40;;
67352;SDS011;54238;52.278;21.056;2022-08-01T03:04:21;15.00;;;6.30;;
67352;SDS011;54238;52.278;21.056;2022-08-01T03:06:55;16.70;;;6.80;;
67352;SDS011;54238;52.278;21.056;2022-08-01T03:09:31;15.20;;;6.40;;
67352;SDS011;54238;52.278;21.056;2022-08-01T03:12:07;13.30;;;5.80;;
67352;SDS011;54238;52.278;21.056;2022-08-01T03:14:46;21.20;;;5.50;;
67352;SDS011;54238;52.278;21.056;2022-08-01T03:17:18;19.30;;;5.30;;
67352;SDS011;54238;52.278;21.056;2022-08-01T03:19:52;14.70;;;5.00;;
67352;SDS011;54238;52.278;21.056;2022-08-01T03:22:23;12.80;;;5.10;;
67352;SDS011;54238;52.278;21.056;2022-08-01T03:24:56;14.90;;;6.00;;
67352;SDS011;54238;52.278;21.056;2022-08-01T03:27:29;18.60;;;5.90;;
67352;SDS011;54238;52.278;21.056;2022-08-01T03:30:02;13.50;;;5.70;;
67352;SDS011;54238;52.278;21.056;2022-08-01T03:32:32;11.70;;;5.60;;
67352;SDS011;54238;52.278;21.056;2022-08-01T03:35:02;18.20;;;7.00;;
67352;SDS011;54238;52.278;21.056;2022-08-01T03:37:38;13.60;;;5.80;;
67352;SDS011;54238;52.278;21.056;2022-08-01T03:40:23;19.70;;;6.80;;
67352;SDS011;54238;52.278;21.056;2022-08-01T03:43:05;15.00;;;6.50;;
67352;SDS011;54238;52.278;21.056;2022-08-01T03:45:44;12.10;;;5.20;;
67352;SDS011;54238;52.278;21.056;2022-08-01T03:48:21;17.40;;;6.70;;
67352;SDS011;54238;52.278;21.056;2022-08-01T03:50:55;14.60;;;4.90;;
67352;SDS011;54238;52.278;21.056;2022-08-01T03:53:30;18.60;;;6.50;;
67352;SDS011;54238;52.278;21.056;2022-08-01T03:56:02;10.80;;;5.30;;
67352;SDS011;54238;52.278;21.056;2022-08-01T03:58:35;13.50;;;5.30;;
67352;SDS011;54238;52.278;21.056;2022-08-01T04:01:08;18.20;;;5.70;;
67352;SDS011;54238;52.278;21.056;2022-08-01T04:03:41;16.50;;;4.70;;
67352;SDS011;54238;52.278;21.056;2022-08-01T04:06:09;14.60;;;5.10;;
67352;SDS011;54238;52.278;21.056;2022-08-01T04:08:37;11.60;;;5.30;;
67352;SDS011;54238;52.278;21.056;2022-08-01T04:11:07;13.60;;;4.80;;
67352;SDS011;54238;52.278;21.056;2022-08-01T04:13:36;15.90;;;4.70;;
67352;SDS011;54238;52.278;21.056;2022-08-01T04:16:10;11.20;;;4.20;;
67352;SDS011;54238;52.278;21.056;2022-08-01T04:18:37;14.30;;;4.70;;
67352;SDS011;54238;52.278;21.056;2022-08-01T04:21:08;15.90;;;5.60;;
67352;SDS011;54238;52.278;21.056;2022-08-01T04:23:36;13.30;;;4.80;;
67352;SDS011;54238;52.278;21.056;2022-08-01T04:26:08;8.70;;;4.60;;
67352;SDS011;54238;52.278;21.056;2022-08-01T04:28:44;8.90;;;4.00;;
67352;SDS011;54238;52.278;21.056;2022-08-01T04:31:16;7.30;;;3.90;;
67352;SDS011;54238;52.278;21.056;2022-08-01T04:33:49;7.50;;;3.30;;
67352;SDS011;54238;52.278;21.056;2022-08-01T04:36:23;13.50;;;4.20;;
67352;SDS011;54238;52.278;21.056;2022-08-01T04:38:58;7.60;;;3.40;;
67352;SDS011;54238;52.278;21.056;2022-08-01T04:41:30;4.50;;;3.30;;
67352;SDS011;54238;52.278;21.056;2022-08-01T04:44:00;11.20;;;3.30;;
67352;SDS011;54238;52.278;21.056;2022-08-01T04:46:33;6.40;;;3.00;;
67352;SDS011;54238;52.278;21.056;2022-08-01T04:49:06;3.70;;;3.00;;
67352;SDS011;54238;52.278;21.056;2022-08-01T04:51:35;8.00;;;3.40;;
67352;SDS011;54238;52.278;21.056;2022-08-01T04:54:02;7.40;;;3.90;;
67352;SDS011;54238;52.278;21.056;2022-08-01T04:56:34;9.70;;;4.50;;
67352;SDS011;54238;52.278;21.056;2022-08-01T04:59:09;8.40;;;3.90;;
67352;SDS011;54238;52.278;21.056;2022-08-01T05:01:54;5.90;;;4.20;;
67352;SDS011;54238;52.278;21.056;2022-08-01T05:04:21;7.40;;;3.90;;
67352;SDS011;54238;52.278;21.056;2022-08-01T05:06:50;7.70;;;3.80;;
67352;SDS011;54238;52.278;21.056;2022-08-01T05:09:27;12.90;;;3.30;;
67352;SDS011;54238;52.278;21.056;2022-08-01T05:11:57;8.00;;;4.70;;
67352;SDS011;54238;52.278;21.056;2022-08-01T05:17:23;5.40;;;3.60;;
67352;SDS011;54238;52.278;21.056;2022-08-01T05:19:52;6.90;;;4.00;;
67352;SDS011;54238;52.278;21.056;2022-08-01T05:22:24;8.60;;;3.50;;
67352;SDS011;54238;52.278;21.056;2022-08-01T05:25:12;6.60;;;3.70;;
67352;SDS011;54238;52.278;21.056;2022-08-01T05:27:42;8.10;;;4.30;;
67352;SDS011;54238;52.278;21.056;2022-08-01T05:30:14;7.30;;;4.30;;
67352;SDS011;54238;52.278;21.056;2022-08-01T05:32:44;8.70;;;4.40;;
67352;SDS011;54238;52.278;21.056;2022-08-01T05:35:16;6.20;;;4.00;;
67352;SDS011;54238;52.278;21.056;2022-08-01T05:37:48;7.80;;;4.00;;
67352;SDS011;54238;52.278;21.056;2022-08-01T05:43:16;4.90;;;4.10;;
67352;SDS011;54238;52.278;21.056;2022-08-01T05:45:45;9.00;;;5.00;;
67352;SDS011;54238;52.278;21.056;2022-08-01T05:48:14;8.30;;;4.60;;
67352;SDS011;54238;52.278;21.056;2022-08-01T05:50:46;7.70;;;4.70;;
67352;SDS011;54238;52.278;21.056;2022-08-01T05:53:14;6.60;;;3.20;;
67352;SDS011;54238;52.278;21.056;2022-08-01T05:58:42;7.70;;;4.70;;
67352;SDS011;54238;52.278;21.056;2022-08-01T06:01:08;5.50;;;3.40;;
67352;SDS011;54238;52.278;21.056;2022-08-01T06:03:38;8.40;;;4.40;;
67352;SDS011;54238;52.278;21.056;2022-08-01T06:08:59;7.00;;;4.10;;
67352;SDS011;54238;52.278;21.056;2022-08-01T06:11:28;5.10;;;4.30;;
67352;SDS011;54238;52.278;21.056;2022-08-01T06:13:58;6.80;;;4.10;;
67352;SDS011;54238;52.278;21.056;2022-08-01T06:16:32;5.20;;;3.50;;
67352;SDS011;54238;52.278;21.056;2022-08-01T06:19:02;6.80;;;3.80;;
67352;SDS011;54238;52.278;21.056;2022-08-01T06:21:42;5.90;;;3.40;;
67352;SDS011;54238;52.278;21.056;2022-08-01T06:24:08;6.40;;;3.70;;
67352;SDS011;54238;52.278;21.056;2022-08-01T06:29:37;10.20;;;3.50;;
67352;SDS011;54238;52.278;21.056;2022-08-01T06:32:05;7.80;;;4.20;;
67352;SDS011;54238;52.278;21.056;2022-08-01T06:34:33;9.70;;;3.80;;
67352;SDS011;54238;52.278;21.056;2022-08-01T06:40:05;4.50;;;3.10;;
67352;SDS011;54238;52.278;21.056;2022-08-01T06:42:39;6.70;;;3.50;;
67352;SDS011;54238;52.278;21.056;2022-08-01T06:45:13;6.90;;;3.30;;
67352;SDS011;54238;52.278;21.056;2022-08-01T06:47:45;6.00;;;3.30;;
67352;SDS011;54238;52.278;21.056;2022-08-01T06:50:15;9.60;;;2.80;;
67352;SDS011;54238;52.278;21.056;2022-08-01T06:52:44;6.70;;;3.10;;
67352;SDS011;54238;52.278;21.056;2022-08-01T06:55:11;5.30;;;3.00;;
67352;SDS011;54238;52.278;21.056;2022-08-01T06:57:48;10.00;;;3.20;;
67352;SDS011;54238;52.278;21.056;2022-08-01T07:00:22;9.30;;;3.30;;
67352;SDS011;54238;52.278;21.056;2022-08-01T07:02:56;5.90;;;3.50;;
67352;SDS011;54238;52.278;21.056;2022-08-01T07:05:25;3.60;;;2.70;;
67352;SDS011;54238;52.278;21.056;2022-08-01T07:07:54;5.30;;;3.00;;
67352;SDS011;54238;52.278;21.056;2022-08-01T07:10:22;7.00;;;2.90;;
67352;SDS011;54238;52.278;21.056;2022-08-01T07:12:51;3.70;;;2.60;;
67352;SDS011;54238;52.278;21.056;2022-08-01T07:15:23;3.80;;;2.50;;
67352;SDS011;54238;52.278;21.056;2022-08-01T07:17:53;6.30;;;4.00;;
67352;SDS011;54238;52.278;21.056;2022-08-01T07:20:25;7.10;;;2.80;;
67352;SDS011;54238;52.278;21.056;2022-08-01T07:22:55;4.60;;;2.60;;
67352;SDS011;54238;52.278;21.056;2022-08-01T07:25:26;3.40;;;2.70;;
67352;SDS011;54238;52.278;21.056;2022-08-01T07:27:58;5.40;;;2.90;;
67352;SDS011;54238;52.278;21.056;2022-08-01T07:30:27;4.90;;;2.20;;
67352;SDS011;54238;52.278;21.056;2022-08-01T07:32:54;7.50;;;2.40;;
67352;SDS011;54238;52.278;21.056;2022-08-01T07:35:22;3.60;;;2.30;;
67352;SDS011;54238;52.278;21.056;2022-08-01T07:37:49;6.70;;;2.40;;
67352;SDS011;54238;52.278;21.056;2022-08-01T07:40:17;6.20;;;2.30;;
67352;SDS011;54238;52.278;21.056;2022-08-01T07:42:45;3.80;;;2.40;;
67352;SDS011;54238;52.278;21.056;2022-08-01T07:45:13;4.40;;;2.70;;
67352;SDS011;54238;52.278;21.056;2022-08-01T07:48:05;3.50;;;2.30;;
67352;SDS011;54238;52.278;21.056;2022-08-01T07:50:35;4.30;;;2.40;;
67352;SDS011;54238;52.278;21.056;2022-08-01T07:53:02;8.30;;;2.50;;
67352;SDS011;54238;52.278;21.056;2022-08-01T07:55:30;3.20;;;2.20;;
67352;SDS011;54238;52.278;21.056;2022-08-01T07:58:00;6.60;;;2.30;;
67352;SDS011;54238;52.278;21.056;2022-08-01T08:00:29;7.40;;;2.40;;
67352;SDS011;54238;52.278;21.056;2022-08-01T08:02:57;5.30;;;2.00;;
67352;SDS011;54238;52.278;21.056;2022-08-01T08:05:26;6.10;;;1.90;;
67352;SDS011;54238;52.278;21.056;2022-08-01T08:07:56;6.70;;;2.00;;
67352;SDS011;54238;52.278;21.056;2022-08-01T08:10:23;5.70;;;1.80;;
67352;SDS011;54238;52.278;21.056;2022-08-01T08:12:50;5.20;;;2.10;;
67352;SDS011;54238;52.278;21.056;2022-08-01T08:15:19;4.30;;;2.00;;
67352;SDS011;54238;52.278;21.056;2022-08-01T08:17:51;6.70;;;2.30;;
67352;SDS011;54238;52.278;21.056;2022-08-01T08:20:23;5.30;;;2.00;;
67352;SDS011;54238;52.278;21.056;2022-08-01T08:22:54;8.40;;;2.20;;
67352;SDS011;54238;52.278;21.056;2022-08-01T08:25:50;9.60;;;1.90;;
67352;SDS011;54238;52.278;21.056;2022-08-01T08:28:21;9.20;;;1.60;;
67352;SDS011;54238;52.278;21.056;2022-08-01T08:30:53;4.20;;;1.50;;
67352;SDS011;54238;52.278;21.056;2022-08-01T08:33:21;4.50;;;1.60;;
67352;SDS011;54238;52.278;21.056;2022-08-01T08:35:54;3.70;;;1.80;;
67352;SDS011;54238;52.278;21.056;2022-08-01T08:38:21;3.90;;;1.80;;
67352;SDS011;54238;52.278;21.056;2022-08-01T08:43:50;4.50;;;2.00;;
67352;SDS011;54238;52.278;21.056;2022-08-01T08:46:20;3.10;;;1.70;;
67352;SDS011;54238;52.278;21.056;2022-08-01T08:48:51;3.70;;;1.60;;
67352;SDS011;54238;52.278;21.056;2022-08-01T08:51:26;4.30;;;1.40;;
67352;SDS011;54238;52.278;21.056;2022-08-01T08:53:57;3.70;;;1.60;;
67352;SDS011;54238;52.278;21.056;2022-08-01T08:56:50;6.00;;;1.50;;
67352;SDS011;54238;52.278;21.056;2022-08-01T08:59:22;2.60;;;1.90;;
67352;SDS011;54238;52.278;21.056;2022-08-01T09:01:51;4.70;;;1.80;;
67352;SDS011;54238;52.278;21.056;2022-08-01T09:04:24;4.30;;;2.00;;
67352;SDS011;54238;52.278;21.056;2022-08-01T09:06:53;2.90;;;1.80;;
67352;SDS011;54238;52.278;21.056;2022-08-01T09:09:22;5.00;;;1.70;;
67352;SDS011;54238;52.278;21.056;2022-08-01T09:11:58;2.60;;;1.60;;
67352;SDS011;54238;52.278;21.056;2022-08-01T09:14:32;3.10;;;1.60;;
67352;SDS011;54238;52.278;21.056;2022-08-01T09:17:38;4.30;;;2.50;;
67352;SDS011;54238;52.278;21.056;2022-08-01T09:20:22;3.20;;;2.20;;
67352;SDS011;54238;52.278;21.056;2022-08-01T09:22:50;3.60;;;1.50;;
67352;SDS011;54238;52.278;21.056;2022-08-01T09:25:17;2.50;;;1.70;;
67352;SDS011;54238;52.278;21.056;2022-08-01T09:27:47;3.30;;;1.60;;
67352;SDS011;54238;52.278;21.056;2022-08-01T09:30:17;3.80;;;1.40;;
67352;SDS011;54238;52.278;21.056;2022-08-01T09:33:22;4.50;;;2.10;;
67352;SDS011;54238;52.278;21.056;2022-08-01T09:36:15;4.10;;;1.70;;
67352;SDS011;54238;52.278;21.056;2022-08-01T09:38:42;4.20;;;1.80;;
67352;SDS011;54238;52.278;21.056;2022-08-01T09:41:09;4.30;;;1.20;;
67352;SDS011;54238;52.278;21.056;2022-08-01T09:43:40;3.50;;;1.80;;
67352;SDS011;54238;52.278;21.056;2022-08-01T09:46:16;4.30;;;1.60;;
67352;SDS011;54238;52.278;21.056;2022-08-01T09:48:55;2.50;;;1.60;;
67352;SDS011;54238;52.278;21.056;2022-08-01T09:51:33;2.70;;;1.90;;
67352;SDS011;54238;52.278;21.056;2022-08-01T09:54:31;6.80;;;1.60;;
67352;SDS011;54238;52.278;21.056;2022-08-01T09:57:54;2.80;;;1.60;;
67352;SDS011;54238;52.278;21.056;2022-08-01T10:00:22;7.30;;;2.00;;
67352;SDS011;54238;52.278;21.056;2022-08-01T10:02:49;3.20;;;1.30;;
67352;SDS011;54238;52.278;21.056;2022-08-01T10:05:16;4.40;;;1.50;;
67352;SDS011;54238;52.278;21.056;2022-08-01T10:07:59;2.60;;;1.60;;
67352;SDS011;54238;52.278;21.056;2022-08-01T10:10:31;5.00;;;1.60;;
67352;SDS011;54238;52.278;21.056;2022-08-01T10:13:04;4.80;;;1.60;;
67352;SDS011;54238;52.278;21.056;2022-08-01T10:15:31;3.50;;;1.80;;
67352;SDS011;54238;52.278;21.056;2022-08-01T10:18:01;4.50;;;1.60;;
67352;SDS011;54238;52.278;21.056;2022-08-01T10:20:34;7.00;;;1.90;;
67352;SDS011;54238;52.278;21.056;2022-08-01T10:23:03;6.10;;;1.70;;
67352;SDS011;54238;52.278;21.056;2022-08-01T10:25:35;5.60;;;1.80;;
67352;SDS011;54238;52.278;21.056;2022-08-01T10:28:13;4.00;;;1.70;;
67352;SDS011;54238;52.278;21.056;2022-08-01T10:30:43;3.80;;;1.50;;
67352;SDS011;54238;52.278;21.056;2022-08-01T10:33:11;3.90;;;1.60;;
67352;SDS011;54238;52.278;21.056;2022-08-01T10:35:58;4.10;;;1.80;;
67352;SDS011;54238;52.278;21.056;2022-08-01T10:38:27;3.80;;;1.60;;
67352;SDS011;54238;52.278;21.056;2022-08-01T10:40:57;2.80;;;1.40;;
67352;SDS011;54238;52.278;21.056;2022-08-01T10:43:30;2.80;;;1.40;;
67352;SDS011;54238;52.278;21.056;2022-08-01T10:45:58;2.00;;;1.40;;
67352;SDS011;54238;52.278;21.056;2022-08-01T10:51:09;1.70;;;1.30;;
67352;SDS011;54238;52.278;21.056;2022-08-01T10:53:46;2.70;;;1.20;;
67352;SDS011;54238;52.278;21.056;2022-08-01T10:56:21;2.90;;;1.40;;
67352;SDS011;54238;52.278;21.056;2022-08-01T10:58:49;3.70;;;1.80;;
67352;SDS011;54238;52.278;21.056;2022-08-01T11:01:30;2.70;;;1.80;;
67352;SDS011;54238;52.278;21.056;2022-08-01T11:04:13;3.90;;;1.60;;
67352;SDS011;54238;52.278;21.056;2022-08-01T11:09:20;4.30;;;1.60;;
67352;SDS011;54238;52.278;21.056;2022-08-01T11:12:03;5.20;;;2.00;;
67352;SDS011;54238;52.278;21.056;2022-08-01T11:14:34;2.10;;;1.50;;
67352;SDS011;54238;52.278;21.056;2022-08-01T11:17:35;3.90;;;1.50;;
67352;SDS011;54238;52.278;21.056;2022-08-01T11:20:09;3.40;;;2.10;;
67352;SDS011;54238;52.278;21.056;2022-08-01T11:30:50;3.50;;;1.80;;
67352;SDS011;54238;52.278;21.056;2022-08-01T11:39:13;5.80;;;1.70;;
67352;SDS011;54238;52.278;21.056;2022-08-01T11:41:45;3.60;;;1.30;;
67352;SDS011;54238;52.278;21.056;2022-08-01T11:44:21;8.70;;;1.90;;
67352;SDS011;54238;52.278;21.056;2022-08-01T11:46:59;2.50;;;1.70;;
67352;SDS011;54238;52.278;21.056;2022-08-01T11:52:08;4.60;;;2.10;;
67352;SDS011;54238;52.278;21.056;2022-08-01T11:54:50;3.10;;;1.70;;
67352;SDS011;54238;52.278;21.056;2022-08-01T11:57:25;4.60;;;2.00;;
67352;SDS011;54238;52.278;21.056;2022-08-01T12:00:00;4.00;;;1.70;;
67352;SDS011;54238;52.278;21.056;2022-08-01T12:02:34;5.50;;;1.70;;
67352;SDS011;54238;52.278;21.056;2022-08-01T12:05:09;3.70;;;1.50;;
67352;SDS011;54238;52.278;21.056;2022-08-01T12:07:43;3.70;;;2.20;;
67352;SDS011;54238;52.278;21.056;2022-08-01T12:10:18;2.30;;;1.70;;
67352;SDS011;54238;52.278;21.056;2022-08-01T12:12:54;3.30;;;1.80;;
67352;SDS011;54238;52.278;21.056;2022-08-01T12:15:33;6.90;;;2.10;;
67352;SDS011;54238;52.278;21.056;2022-08-01T12:18:03;5.20;;;2.00;;
67352;SDS011;54238;52.278;21.056;2022-08-01T12:20:38;2.30;;;1.70;;
67352;SDS011;54238;52.278;21.056;2022-08-01T12:23:11;4.40;;;1.70;;
67352;SDS011;54238;52.278;21.056;2022-08-01T12:25:40;4.30;;;1.70;;
67352;SDS011;54238;52.278;21.056;2022-08-01T12:28:11;3.70;;;1.90;;
67352;SDS011;54238;52.278;21.056;2022-08-01T12:30:41;6.30;;;2.40;;
67352;SDS011;54238;52.278;21.056;2022-08-01T12:33:17;7.40;;;2.50;;
67352;SDS011;54238;52.278;21.056;2022-08-01T12:35:53;4.90;;;2.50;;
67352;SDS011;54238;52.278;21.056;2022-08-01T12:38:25;5.00;;;2.00;;
67352;SDS011;54238;52.278;21.056;2022-08-01T12:40:54;3.80;;;2.20;;
67352;SDS011;54238;52.278;21.056;2022-08-01T12:43:34;5.70;;;2.00;;
67352;SDS011;54238;52.278;21.056;2022-08-01T12:46:03;5.20;;;2.80;;
67352;SDS011;54238;52.278;21.056;2022-08-01T12:51:31;2.50;;;1.90;;
67352;SDS011;54238;52.278;21.056;2022-08-01T12:53:59;7.40;;;1.80;;
67352;SDS011;54238;52.278;21.056;2022-08-01T12:56:37;3.30;;;2.00;;
67352;SDS011;54238;52.278;21.056;2022-08-01T12:59:24;3.80;;;1.70;;
67352;SDS011;54238;52.278;21.056;2022-08-01T13:01:55;4.20;;;1.40;;
67352;SDS011;54238;52.278;21.056;2022-08-01T13:04:25;4.30;;;2.20;;
67352;SDS011;54238;52.278;21.056;2022-08-01T13:06:55;4.50;;;2.50;;
67352;SDS011;54238;52.278;21.056;2022-08-01T13:09:22;6.50;;;2.20;;
67352;SDS011;54238;52.278;21.056;2022-08-01T13:11:53;5.00;;;2.80;;
67352;SDS011;54238;52.278;21.056;2022-08-01T13:14:31;6.90;;;2.30;;
67352;SDS011;54238;52.278;21.056;2022-08-01T13:16:58;3.10;;;1.80;;
67352;SDS011;54238;52.278;21.056;2022-08-01T13:22:37;3.00;;;1.70;;
67352;SDS011;54238;52.278;21.056;2022-08-01T13:25:16;2.40;;;1.70;;
67352;SDS011;54238;52.278;21.056;2022-08-01T13:27:45;4.60;;;1.40;;
67352;SDS011;54238;52.278;21.056;2022-08-01T13:30:17;3.40;;;1.60;;
67352;SDS011;54238;52.278;21.056;2022-08-01T13:32:58;3.80;;;2.50;;
67352;SDS011;54238;52.278;21.056;2022-08-01T13:35:28;4.90;;;2.00;;
67352;SDS011;54238;52.278;21.056;2022-08-01T13:37:57;2.60;;;2.00;;
67352;SDS011;54238;52.278;21.056;2022-08-01T13:40:26;5.00;;;2.40;;
67352;SDS011;54238;52.278;21.056;2022-08-01T13:42:54;2.90;;;2.30;;
67352;SDS011;54238;52.278;21.056;2022-08-01T13:45:31;7.30;;;2.40;;
67352;SDS011;54238;52.278;21.056;2022-08-01T13:48:01;5.70;;;2.20;;
67352;SDS011;54238;52.278;21.056;2022-08-01T13:50:39;3.90;;;2.10;;
67352;SDS011;54238;52.278;21.056;2022-08-01T13:53:06;3.40;;;2.10;;
67352;SDS011;54238;52.278;21.056;2022-08-01T13:55:44;3.10;;;2.10;;
67352;SDS011;54238;52.278;21.056;2022-08-01T13:58:14;9.40;;;1.90;;
67352;SDS011;54238;52.278;21.056;2022-08-01T14:00:55;3.00;;;2.20;;
67352;SDS011;54238;52.278;21.056;2022-08-01T14:03:22;3.40;;;2.20;;
67352;SDS011;54238;52.278;21.056;2022-08-01T14:05:49;4.10;;;2.50;;
67352;SDS011;54238;52.278;21.056;2022-08-01T14:08:26;6.70;;;2.50;;
67352;SDS011;54238;52.278;21.056;2022-08-01T14:11:02;3.40;;;2.20;;
67352;SDS011;54238;52.278;21.056;2022-08-01T14:13:36;4.30;;;3.20;;
67352;SDS011;54238;52.278;21.056;2022-08-01T14:16:09;5.10;;;2.30;;
67352;SDS011;54238;52.278;21.056;2022-08-01T14:18:46;8.20;;;6.60;;
67352;SDS011;54238;52.278;21.056;2022-08-01T14:21:16;10.10;;;2.10;;
67352;SDS011;54238;52.278;21.056;2022-08-01T14:23:43;4.60;;;2.50;;
67352;SDS011;54238;52.278;21.056;2022-08-01T14:26:12;4.20;;;2.50;;
67352;SDS011;54238;52.278;21.056;2022-08-01T14:28:42;4.00;;;2.80;;
67352;SDS011;54238;52.278;21.056;2022-08-01T14:31:12;4.30;;;2.40;;
67352;SDS011;54238;52.278;21.056;2022-08-01T14:33:41;7.30;;;2.80;;
67352;SDS011;54238;52.278;21.056;2022-08-01T14:36:08;4.00;;;2.50;;
67352;SDS011;54238;52.278;21.056;2022-08-01T14:38:40;11.60;;;2.70;;
67352;SDS011;54238;52.278;21.056;2022-08-01T14:41:11;5.90;;;2.50;;
67352;SDS011;54238;52.278;21.056;2022-08-01T14:43:43;4.80;;;2.70;;
67352;SDS011;54238;52.278;21.056;2022-08-01T14:46:10;5.90;;;2.60;;
67352;SDS011;54238;52.278;21.056;2022-08-01T14:48:42;5.40;;;2.90;;
67352;SDS011;54238;52.278;21.056;2022-08-01T14:51:12;3.50;;;2.60;;
67352;SDS011;54238;52.278;21.056;2022-08-01T14:53:39;3.30;;;2.70;;
67352;SDS011;54238;52.278;21.056;2022-08-01T14:56:06;6.10;;;2.70;;
67352;SDS011;54238;52.278;21.056;2022-08-01T14:58:34;4.60;;;3.10;;
67352;SDS011;54238;52.278;21.056;2022-08-01T15:01:06;4.10;;;2.20;;
67352;SDS011;54238;52.278;21.056;2022-08-01T15:03:40;3.00;;;2.50;;
67352;SDS011;54238;52.278;21.056;2022-08-01T15:06:10;6.30;;;2.50;;
67352;SDS011;54238;52.278;21.056;2022-08-01T15:08:39;6.00;;;2.20;;
67352;SDS011;54238;52.278;21.056;2022-08-01T15:11:06;3.30;;;2.30;;
67352;SDS011;54238;52.278;21.056;2022-08-01T15:13:35;4.60;;;2.70;;
67352;SDS011;54238;52.278;21.056;2022-08-01T15:16:02;3.40;;;2.50;;
67352;SDS011;54238;52.278;21.056;2022-08-01T15:18:32;4.00;;;2.30;;
67352;SDS011;54238;52.278;21.056;2022-08-01T15:20:59;2.80;;;2.10;;
67352;SDS011;54238;52.278;21.056;2022-08-01T15:23:29;3.30;;;2.20;;
67352;SDS011;54238;52.278;21.056;2022-08-01T15:25:58;2.70;;;2.30;;
67352;SDS011;54238;52.278;21.056;2022-08-01T15:28:26;5.70;;;2.20;;
67352;SDS011;54238;52.278;21.056;2022-08-01T15:31:00;4.90;;;2.30;;
67352;SDS011;54238;52.278;21.056;2022-08-01T15:33:29;3.10;;;2.20;;
67352;SDS011;54238;52.278;21.056;2022-08-01T15:35:56;3.50;;;2.20;;
67352;SDS011;54238;52.278;21.056;2022-08-01T15:38:28;6.90;;;2.40;;
67352;SDS011;54238;52.278;21.056;2022-08-01T15:41:00;5.50;;;2.60;;
67352;SDS011;54238;52.278;21.056;2022-08-01T15:43:27;3.90;;;2.40;;
67352;SDS011;54238;52.278;21.056;2022-08-01T15:45:57;5.40;;;2.90;;
67352;SDS011;54238;52.278;21.056;2022-08-01T15:48:27;4.00;;;2.90;;
67352;SDS011;54238;52.278;21.056;2022-08-01T15:50:54;4.00;;;2.90;;
67352;SDS011;54238;52.278;21.056;2022-08-01T15:53:23;7.50;;;3.20;;
67352;SDS011;54238;52.278;21.056;2022-08-01T15:55:52;5.90;;;3.50;;
67352;SDS011;54238;52.278;21.056;2022-08-01T15:58:21;4.20;;;3.20;;
67352;SDS011;54238;52.278;21.056;2022-08-01T16:00:50;4.50;;;2.60;;
67352;SDS011;54238;52.278;21.056;2022-08-01T16:03:20;5.40;;;2.20;;
67352;SDS011;54238;52.278;21.056;2022-08-01T16:05:50;4.50;;;2.60;;
67352;SDS011;54238;52.278;21.056;2022-08-01T16:08:20;5.10;;;2.00;;
67352;SDS011;54238;52.278;21.056;2022-08-01T16:10:51;5.80;;;2.50;;
67352;SDS011;54238;52.278;21.056;2022-08-01T16:13:20;6.10;;;2.20;;